Strona główna
METAR-TAF:

METAR-TAF

Lotnisko :

Gaithersburg, Maryland, Stany Zjednoczone

Szerokość geograficzna: 39-10-06N, Długość geograficzna: 077-09-58W, wysokość: 164 m

Aktualna obserwacja pogody

Raport powstał 47 minut temu, godzina 23:56 UTC
Wiatr 7 kt od zachód
Temperatura 29°C
Wilgotność 52%
Ciśnienie 1007 hPa
Widzialność: 16.1 km
bezchmurnie

METAR: KGAI 032356Z AUTO 27007KT 10SM CLR 29/18 A2974 RMK AO2 SLP077 T02890178 10333 20289 53005

czas: 20:43 (00:43 UTC)


TAF: brakujący

Obserwacja i prognoza pogody dla ponad 4000 lotnisk (raport METAR i TAF).

Dostępne stacje oznaczono żółtymi i czerwonymi punktami na mapie.

Najedź kursorem aby zobaczyć nazwę stacji.

Kliknij aby zobaczyć obserwacje i prognozy pogody.

Aby zmienić mapę: kliknij na zielony przycisk z czarnym krzyżykiem, aby powiększyć; na zielony przycisk z myślnikiem, aby pomniejszyć; na zielone strzałki, aby przejść do map sąsiednich.


METAR-TAF: